sensor_id;sensor_type;location;lat;lon;timestamp;temperature;humidity
20546;DHT22;10431;50.228;9.112;2023-04-01T00:01:01;18.50;90.40
20546;DHT22;10431;50.228;9.112;2023-04-01T00:03:28;18.50;90.40
20546;DHT22;10431;50.228;9.112;2023-04-01T00:05:56;18.40;90.40
20546;DHT22;10431;50.228;9.112;2023-04-01T00:08:23;18.50;90.40
20546;DHT22;10431;50.228;9.112;2023-04-01T00:10:49;18.50;90.40
20546;DHT22;10431;50.228;9.112;2023-04-01T00:13:15;18.50;90.40
20546;DHT22;10431;50.228;9.112;2023-04-01T00:15:42;18.40;90.40
20546;DHT22;10431;50.228;9.112;2023-04-01T00:18:09;18.40;90.40
20546;DHT22;10431;50.228;9.112;2023-04-01T00:20:35;18.40;90.40
20546;DHT22;10431;50.228;9.112;2023-04-01T00:23:02;18.40;90.40
20546;DHT22;10431;50.228;9.112;2023-04-01T00:25:28;18.40;90.40
20546;DHT22;10431;50.228;9.112;2023-04-01T00:27:55;18.40;90.40
20546;DHT22;10431;50.228;9.112;2023-04-01T00:30:21;18.40;90.40
20546;DHT22;10431;50.228;9.112;2023-04-01T00:32:51;18.40;90.40
20546;DHT22;10431;50.228;9.112;2023-04-01T00:35:18;18.40;90.40
20546;DHT22;10431;50.228;9.112;2023-04-01T00:37:44;18.40;90.40
20546;DHT22;10431;50.228;9.112;2023-04-01T00:40:27;18.40;90.40
20546;DHT22;10431;50.228;9.112;2023-04-01T00:42:54;18.40;90.40
20546;DHT22;10431;50.228;9.112;2023-04-01T00:47:51;18.40;90.40
20546;DHT22;10431;50.228;9.112;2023-04-01T00:50:17;18.40;90.40
20546;DHT22;10431;50.228;9.112;2023-04-01T00:52:44;18.40;90.40
20546;DHT22;10431;50.228;9.112;2023-04-01T00:55:11;18.40;90.40
20546;DHT22;10431;50.228;9.112;2023-04-01T00:57:40;18.40;90.40
20546;DHT22;10431;50.228;9.112;2023-04-01T01:00:10;18.40;90.40
20546;DHT22;10431;50.228;9.112;2023-04-01T01:02:38;18.40;90.40
20546;DHT22;10431;50.228;9.112;2023-04-01T01:05:05;18.30;90.40
20546;DHT22;10431;50.228;9.112;2023-04-01T01:15:47;18.30;90.40
20546;DHT22;10431;50.228;9.112;2023-04-01T01:21:29;18.30;90.40
20546;DHT22;10431;50.228;9.112;2023-04-01T01:27:09;18.30;90.40
20546;DHT22;10431;50.228;9.112;2023-04-01T01:35:31;18.30;90.40
20546;DHT22;10431;50.228;9.112;2023-04-01T01:38:08;18.30;90.40
20546;DHT22;10431;50.228;9.112;2023-04-01T01:40:36;18.30;90.40
20546;DHT22;10431;50.228;9.112;2023-04-01T01:43:09;18.30;90.40
20546;DHT22;10431;50.228;9.112;2023-04-01T01:45:38;18.30;90.40
20546;DHT22;10431;50.228;9.112;2023-04-01T01:48:07;18.30;90.40
20546;DHT22;10431;50.228;9.112;2023-04-01T01:50:35;18.30;90.40
20546;DHT22;10431;50.228;9.112;2023-04-01T01:53:08;18.30;90.40
20546;DHT22;10431;50.228;9.112;2023-04-01T01:55:41;18.30;90.40
20546;DHT22;10431;50.228;9.112;2023-04-01T01:58:30;18.30;90.40
20546;DHT22;10431;50.228;9.112;2023-04-01T02:01:03;18.30;90.40
20546;DHT22;10431;50.228;9.112;2023-04-01T02:03:35;18.30;90.40
20546;DHT22;10431;50.228;9.112;2023-04-01T02:06:05;18.30;90.40
20546;DHT22;10431;50.228;9.112;2023-04-01T02:08:45;18.30;90.40
20546;DHT22;10431;50.228;9.112;2023-04-01T02:11:16;18.30;90.40
20546;DHT22;10431;50.228;9.112;2023-04-01T02:14:01;18.30;90.40
20546;DHT22;10431;50.228;9.112;2023-04-01T02:16:35;18.30;90.40
20546;DHT22;10431;50.228;9.112;2023-04-01T02:19:05;18.30;90.40
20546;DHT22;10431;50.228;9.112;2023-04-01T02:21:34;18.20;90.40
20546;DHT22;10431;50.228;9.112;2023-04-01T02:24:04;18.30;90.40
20546;DHT22;10431;50.228;9.112;2023-04-01T02:26:34;18.20;90.40
20546;DHT22;10431;50.228;9.112;2023-04-01T02:29:01;18.20;90.40
20546;DHT22;10431;50.228;9.112;2023-04-01T02:31:30;18.20;90.40
20546;DHT22;10431;50.228;9.112;2023-04-01T02:33:57;18.20;90.40
20546;DHT22;10431;50.228;9.112;2023-04-01T02:36:23;18.20;90.40
20546;DHT22;10431;50.228;9.112;2023-04-01T02:38:51;18.20;90.40
20546;DHT22;10431;50.228;9.112;2023-04-01T02:41:18;18.20;90.40
20546;DHT22;10431;50.228;9.112;2023-04-01T02:43:44;18.20;90.40
20546;DHT22;10431;50.228;9.112;2023-04-01T02:46:10;18.20;90.70
20546;DHT22;10431;50.228;9.112;2023-04-01T02:48:36;18.20;90.40
20546;DHT22;10431;50.228;9.112;2023-04-01T02:51:03;18.30;90.40
20546;DHT22;10431;50.228;9.112;2023-04-01T02:53:29;18.30;90.40
20546;DHT22;10431;50.228;9.112;2023-04-01T02:55:56;18.30;90.40
20546;DHT22;10431;50.228;9.112;2023-04-01T02:58:22;18.20;90.40
20546;DHT22;10431;50.228;9.112;2023-04-01T03:00:48;18.30;90.70
20546;DHT22;10431;50.228;9.112;2023-04-01T03:03:14;18.30;90.40
20546;DHT22;10431;50.228;9.112;2023-04-01T03:05:40;18.20;90.40
20546;DHT22;10431;50.228;9.112;2023-04-01T03:08:07;18.20;90.40
20546;DHT22;10431;50.228;9.112;2023-04-01T03:10:33;18.30;90.40
20546;DHT22;10431;50.228;9.112;2023-04-01T03:13:00;18.30;90.40
20546;DHT22;10431;50.228;9.112;2023-04-01T03:15:26;18.30;90.40
20546;DHT22;10431;50.228;9.112;2023-04-01T03:17:54;18.20;90.70
20546;DHT22;10431;50.228;9.112;2023-04-01T03:20:20;18.20;90.40
20546;DHT22;10431;50.228;9.112;2023-04-01T03:22:46;18.30;90.40
20546;DHT22;10431;50.228;9.112;2023-04-01T03:25:13;18.20;90.40
20546;DHT22;10431;50.228;9.112;2023-04-01T03:27:39;18.20;90.40
20546;DHT22;10431;50.228;9.112;2023-04-01T03:30:07;18.20;90.40
20546;DHT22;10431;50.228;9.112;2023-04-01T03:32:39;18.20;90.40
20546;DHT22;10431;50.228;9.112;2023-04-01T03:35:06;18.20;90.40
20546;DHT22;10431;50.228;9.112;2023-04-01T03:37:32;18.20;90.40
20546;DHT22;10431;50.228;9.112;2023-04-01T03:39:59;18.20;90.40
20546;DHT22;10431;50.228;9.112;2023-04-01T03:42:25;18.20;90.40
20546;DHT22;10431;50.228;9.112;2023-04-01T03:44:51;18.20;90.40
20546;DHT22;10431;50.228;9.112;2023-04-01T03:47:17;18.20;90.70
20546;DHT22;10431;50.228;9.112;2023-04-01T03:49:44;18.20;90.40
20546;DHT22;10431;50.228;9.112;2023-04-01T03:52:11;18.20;90.40
20546;DHT22;10431;50.228;9.112;2023-04-01T03:54:37;18.20;90.40
20546;DHT22;10431;50.228;9.112;2023-04-01T03:57:04;18.20;90.40
20546;DHT22;10431;50.228;9.112;2023-04-01T03:59:32;18.20;90.40
20546;DHT22;10431;50.228;9.112;2023-04-01T04:01:58;18.20;90.40
20546;DHT22;10431;50.228;9.112;2023-04-01T04:04:24;18.20;90.40
20546;DHT22;10431;50.228;9.112;2023-04-01T04:06:51;18.20;90.40
20546;DHT22;10431;50.228;9.112;2023-04-01T04:09:20;18.20;90.40
20546;DHT22;10431;50.228;9.112;2023-04-01T04:11:46;18.20;90.40
20546;DHT22;10431;50.228;9.112;2023-04-01T04:14:12;18.20;90.40
20546;DHT22;10431;50.228;9.112;2023-04-01T04:16:39;18.20;90.40
20546;DHT22;10431;50.228;9.112;2023-04-01T04:19:06;18.20;90.40
20546;DHT22;10431;50.228;9.112;2023-04-01T04:21:32;18.20;90.40
20546;DHT22;10431;50.228;9.112;2023-04-01T04:24:00;18.20;90.40
20546;DHT22;10431;50.228;9.112;2023-04-01T04:26:31;18.20;90.40
20546;DHT22;10431;50.228;9.112;2023-04-01T04:29:00;18.20;90.40
20546;DHT22;10431;50.228;9.112;2023-04-01T04:31:27;18.20;90.40
20546;DHT22;10431;50.228;9.112;2023-04-01T04:33:55;18.20;90.40
20546;DHT22;10431;50.228;9.112;2023-04-01T04:36:22;18.20;90.40
20546;DHT22;10431;50.228;9.112;2023-04-01T04:38:50;18.20;90.40
20546;DHT22;10431;50.228;9.112;2023-04-01T04:41:18;18.20;90.40
20546;DHT22;10431;50.228;9.112;2023-04-01T04:43:53;18.20;90.40
20546;DHT22;10431;50.228;9.112;2023-04-01T04:46:20;18.10;90.30
20546;DHT22;10431;50.228;9.112;2023-04-01T04:48:49;18.20;90.40
20546;DHT22;10431;50.228;9.112;2023-04-01T04:51:17;18.20;90.40
20546;DHT22;10431;50.228;9.112;2023-04-01T04:53:44;18.20;90.30
20546;DHT22;10431;50.228;9.112;2023-04-01T04:56:11;18.20;90.30
20546;DHT22;10431;50.228;9.112;2023-04-01T04:58:54;18.20;90.40
20546;DHT22;10431;50.228;9.112;2023-04-01T05:01:25;18.10;90.30
20546;DHT22;10431;50.228;9.112;2023-04-01T05:03:51;18.20;90.30
20546;DHT22;10431;50.228;9.112;2023-04-01T05:06:19;18.10;90.30
20546;DHT22;10431;50.228;9.112;2023-04-01T05:08:45;18.20;90.30
20546;DHT22;10431;50.228;9.112;2023-04-01T05:11:15;18.20;90.30
20546;DHT22;10431;50.228;9.112;2023-04-01T05:13:43;18.10;90.30
20546;DHT22;10431;50.228;9.112;2023-04-01T05:16:13;18.20;90.40
20546;DHT22;10431;50.228;9.112;2023-04-01T05:18:39;18.20;90.40
20546;DHT22;10431;50.228;9.112;2023-04-01T05:21:08;18.20;90.40
20546;DHT22;10431;50.228;9.112;2023-04-01T05:23:36;18.20;90.40
20546;DHT22;10431;50.228;9.112;2023-04-01T05:26:04;18.20;90.40
20546;DHT22;10431;50.228;9.112;2023-04-01T05:28:32;18.20;90.40
20546;DHT22;10431;50.228;9.112;2023-04-01T05:30:59;18.20;90.40
20546;DHT22;10431;50.228;9.112;2023-04-01T05:33:30;18.20;90.40
20546;DHT22;10431;50.228;9.112;2023-04-01T05:36:12;18.10;90.40
20546;DHT22;10431;50.228;9.112;2023-04-01T05:38:39;18.20;90.40
20546;DHT22;10431;50.228;9.112;2023-04-01T05:41:08;18.20;90.40
20546;DHT22;10431;50.228;9.112;2023-04-01T05:43:39;18.10;90.30
20546;DHT22;10431;50.228;9.112;2023-04-01T05:46:25;18.10;90.30
20546;DHT22;10431;50.228;9.112;2023-04-01T05:49:05;18.10;90.30
20546;DHT22;10431;50.228;9.112;2023-04-01T05:51:31;18.10;90.30
20546;DHT22;10431;50.228;9.112;2023-04-01T05:53:57;18.10;90.30
20546;DHT22;10431;50.228;9.112;2023-04-01T05:56:24;18.10;90.30
20546;DHT22;10431;50.228;9.112;2023-04-01T05:58:53;18.10;90.40
20546;DHT22;10431;50.228;9.112;2023-04-01T06:01:20;18.10;90.40
20546;DHT22;10431;50.228;9.112;2023-04-01T06:03:46;18.20;90.40
20546;DHT22;10431;50.228;9.112;2023-04-01T06:06:15;18.20;90.40
20546;DHT22;10431;50.228;9.112;2023-04-01T06:08:42;18.20;90.30
20546;DHT22;10431;50.228;9.112;2023-04-01T06:22:25;18.60;89.80
20546;DHT22;10431;50.228;9.112;2023-04-01T06:34:21;18.70;89.30
20546;DHT22;10431;50.228;9.112;2023-04-01T06:37:18;18.70;89.20
20546;DHT22;10431;50.228;9.112;2023-04-01T06:51:50;18.90;89.10
20546;DHT22;10431;50.228;9.112;2023-04-01T06:54:40;18.90;88.90
20546;DHT22;10431;50.228;9.112;2023-04-01T06:57:34;18.80;88.90
20546;DHT22;10431;50.228;9.112;2023-04-01T07:00:29;18.90;88.80
20546;DHT22;10431;50.228;9.112;2023-04-01T07:05:36;18.90;88.70
20546;DHT22;10431;50.228;9.112;2023-04-01T07:08:06;18.90;88.70
20546;DHT22;10431;50.228;9.112;2023-04-01T07:10:50;18.90;88.80
20546;DHT22;10431;50.228;9.112;2023-04-01T07:13:47;18.90;89.00
20546;DHT22;10431;50.228;9.112;2023-04-01T07:18:58;18.90;88.80
20546;DHT22;10431;50.228;9.112;2023-04-01T07:22:05;18.90;88.80
20546;DHT22;10431;50.228;9.112;2023-04-01T07:24:54;18.90;88.70
20546;DHT22;10431;50.228;9.112;2023-04-01T07:27:23;18.90;88.80
20546;DHT22;10431;50.228;9.112;2023-04-01T07:29:50;18.90;88.70
20546;DHT22;10431;50.228;9.112;2023-04-01T07:34:57;18.90;88.70
20546;DHT22;10431;50.228;9.112;2023-04-01T07:46:16;18.90;89.50
20546;DHT22;10431;50.228;9.112;2023-04-01T07:54:25;18.90;88.70
20546;DHT22;10431;50.228;9.112;2023-04-01T07:57:16;18.90;88.70
20546;DHT22;10431;50.228;9.112;2023-04-01T08:05:38;18.80;89.00
20546;DHT22;10431;50.228;9.112;2023-04-01T08:14:16;18.80;89.00
20546;DHT22;10431;50.228;9.112;2023-04-01T08:20:03;18.90;89.00
20546;DHT22;10431;50.228;9.112;2023-04-01T08:22:51;18.90;89.00
20546;DHT22;10431;50.228;9.112;2023-04-01T08:25:30;18.90;89.00
20546;DHT22;10431;50.228;9.112;2023-04-01T08:33:26;18.90;88.80
20546;DHT22;10431;50.228;9.112;2023-04-01T08:36:38;18.90;88.80
20546;DHT22;10431;50.228;9.112;2023-04-01T08:39:19;18.90;89.00
20546;DHT22;10431;50.228;9.112;2023-04-01T08:48:04;19.00;89.80
20546;DHT22;10431;50.228;9.112;2023-04-01T09:05:36;19.10;89.90
20546;DHT22;10431;50.228;9.112;2023-04-01T09:14:07;19.10;90.00
20546;DHT22;10431;50.228;9.112;2023-04-01T09:17:20;19.10;90.00
20546;DHT22;10431;50.228;9.112;2023-04-01T09:29:18;19.10;90.40
20546;DHT22;10431;50.228;9.112;2023-04-01T09:32:31;19.10;90.40
20546;DHT22;10431;50.228;9.112;2023-04-01T09:35:38;19.10;90.40
20546;DHT22;10431;50.228;9.112;2023-04-01T09:43:33;19.10;90.20
20546;DHT22;10431;50.228;9.112;2023-04-01T09:46:21;19.10;90.20
20546;DHT22;10431;50.228;9.112;2023-04-01T10:06:49;19.10;90.00
20546;DHT22;10431;50.228;9.112;2023-04-01T10:15:23;19.00;90.10
20546;DHT22;10431;50.228;9.112;2023-04-01T10:23:45;19.10;90.00
20546;DHT22;10431;50.228;9.112;2023-04-01T10:30:05;19.00;90.10
20546;DHT22;10431;50.228;9.112;2023-04-01T11:43:27;19.10;90.10
20546;DHT22;10431;50.228;9.112;2023-04-01T11:46:46;19.10;90.00
20546;DHT22;10431;50.228;9.112;2023-04-01T11:52:53;19.10;90.10
20546;DHT22;10431;50.228;9.112;2023-04-01T11:55:45;19.00;90.00
20546;DHT22;10431;50.228;9.112;2023-04-01T11:58:25;19.00;90.00
20546;DHT22;10431;50.228;9.112;2023-04-01T12:04:06;19.00;90.00
20546;DHT22;10431;50.228;9.112;2023-04-01T12:10:16;19.10;90.00
20546;DHT22;10431;50.228;9.112;2023-04-01T12:13:14;19.00;90.00
20546;DHT22;10431;50.228;9.112;2023-04-01T12:18:42;19.10;90.20
20546;DHT22;10431;50.228;9.112;2023-04-01T12:35:49;19.10;90.30
20546;DHT22;10431;50.228;9.112;2023-04-01T12:43:31;19.20;90.30
20546;DHT22;10431;50.228;9.112;2023-04-01T12:57:54;19.20;90.20
20546;DHT22;10431;50.228;9.112;2023-04-01T13:17:53;19.10;90.30
20546;DHT22;10431;50.228;9.112;2023-04-01T13:26:22;19.10;90.30
20546;DHT22;10431;50.228;9.112;2023-04-01T13:37:32;19.10;90.30
20546;DHT22;10431;50.228;9.112;2023-04-01T13:45:21;19.10;90.20
20546;DHT22;10431;50.228;9.112;2023-04-01T14:01:19;19.10;90.20
20546;DHT22;10431;50.228;9.112;2023-04-01T14:04:09;19.10;90.20
20546;DHT22;10431;50.228;9.112;2023-04-01T14:40:27;19.20;90.60
20546;DHT22;10431;50.228;9.112;2023-04-01T14:51:28;19.20;90.60
20546;DHT22;10431;50.228;9.112;2023-04-01T15:05:08;19.20;90.60
20546;DHT22;10431;50.228;9.112;2023-04-01T15:29:23;19.20;90.60
20546;DHT22;10431;50.228;9.112;2023-04-01T15:41:15;19.10;90.60
20546;DHT22;10431;50.228;9.112;2023-04-01T15:43:48;19.20;90.60
20546;DHT22;10431;50.228;9.112;2023-04-01T15:49:36;19.20;90.60
20546;DHT22;10431;50.228;9.112;2023-04-01T15:52:38;19.20;90.60
20546;DHT22;10431;50.228;9.112;2023-04-01T15:55:24;19.10;90.70
20546;DHT22;10431;50.228;9.112;2023-04-01T15:58:25;19.20;90.70
20546;DHT22;10431;50.228;9.112;2023-04-01T16:14:57;19.10;90.90
20546;DHT22;10431;50.228;9.112;2023-04-01T16:17:42;19.10;90.90
20546;DHT22;10431;50.228;9.112;2023-04-01T16:20:25;19.20;91.00
20546;DHT22;10431;50.228;9.112;2023-04-01T16:23:24;19.10;91.00
20546;DHT22;10431;50.228;9.112;2023-04-01T16:26:02;19.10;91.00
20546;DHT22;10431;50.228;9.112;2023-04-01T16:28:36;19.20;91.00
20546;DHT22;10431;50.228;9.112;2023-04-01T16:34:21;19.20;91.10
20546;DHT22;10431;50.228;9.112;2023-04-01T16:36:55;19.20;91.10
20546;DHT22;10431;50.228;9.112;2023-04-01T16:47:40;19.10;91.20
20546;DHT22;10431;50.228;9.112;2023-04-01T16:58:18;19.10;91.50
20546;DHT22;10431;50.228;9.112;2023-04-01T17:00:55;19.10;91.50
20546;DHT22;10431;50.228;9.112;2023-04-01T17:03:42;19.10;91.50
20546;DHT22;10431;50.228;9.112;2023-04-01T17:28:07;19.30;92.60
20546;DHT22;10431;50.228;9.112;2023-04-01T17:34:14;19.20;92.70
20546;DHT22;10431;50.228;9.112;2023-04-01T17:39:38;19.30;92.80
20546;DHT22;10431;50.228;9.112;2023-04-01T17:42:33;19.30;92.90
20546;DHT22;10431;50.228;9.112;2023-04-01T17:53:36;19.30;93.20
20546;DHT22;10431;50.228;9.112;2023-04-01T18:01:26;19.20;93.40
20546;DHT22;10431;50.228;9.112;2023-04-01T18:06:51;19.30;93.40
20546;DHT22;10431;50.228;9.112;2023-04-01T18:09:49;19.30;93.40
20546;DHT22;10431;50.228;9.112;2023-04-01T18:15:28;19.20;93.30
20546;DHT22;10431;50.228;9.112;2023-04-01T18:18:32;19.20;93.20
20546;DHT22;10431;50.228;9.112;2023-04-01T18:23:54;19.20;93.20
20546;DHT22;10431;50.228;9.112;2023-04-01T18:26:28;19.20;93.20
20546;DHT22;10431;50.228;9.112;2023-04-01T18:31:51;19.20;93.10
20546;DHT22;10431;50.228;9.112;2023-04-01T18:34:30;19.20;93.10
20546;DHT22;10431;50.228;9.112;2023-04-01T18:37:23;19.20;93.10
20546;DHT22;10431;50.228;9.112;2023-04-01T18:40:22;19.20;93.10
20546;DHT22;10431;50.228;9.112;2023-04-01T18:46:00;19.20;93.10
20546;DHT22;10431;50.228;9.112;2023-04-01T18:54:33;19.20;93.10
20546;DHT22;10431;50.228;9.112;2023-04-01T18:57:13;19.20;93.20
20546;DHT22;10431;50.228;9.112;2023-04-01T19:05:07;19.20;93.60
20546;DHT22;10431;50.228;9.112;2023-04-01T19:21:33;19.20;92.90
20546;DHT22;10431;50.228;9.112;2023-04-01T19:29:31;19.20;93.10
20546;DHT22;10431;50.228;9.112;2023-04-01T19:39:54;19.30;93.20
20546;DHT22;10431;50.228;9.112;2023-04-01T19:42:39;19.20;93.20
20546;DHT22;10431;50.228;9.112;2023-04-01T19:53:29;19.20;93.40
20546;DHT22;10431;50.228;9.112;2023-04-01T20:01:17;19.20;93.30
20546;DHT22;10431;50.228;9.112;2023-04-01T20:03:58;19.20;93.30
20546;DHT22;10431;50.228;9.112;2023-04-01T20:09:52;19.20;93.40
20546;DHT22;10431;50.228;9.112;2023-04-01T20:14:58;19.20;93.40
20546;DHT22;10431;50.228;9.112;2023-04-01T20:25:24;19.20;93.70
20546;DHT22;10431;50.228;9.112;2023-04-01T20:30:32;19.20;93.70
20546;DHT22;10431;50.228;9.112;2023-04-01T20:44:02;19.30;93.10
20546;DHT22;10431;50.228;9.112;2023-04-01T20:46:48;19.20;93.10
20546;DHT22;10431;50.228;9.112;2023-04-01T20:49:43;19.20;93.00
20546;DHT22;10431;50.228;9.112;2023-04-01T21:00:40;19.20;92.70
20546;DHT22;10431;50.228;9.112;2023-04-01T21:17:36;18.80;92.80
20546;DHT22;10431;50.228;9.112;2023-04-01T21:23:11;18.80;92.80
20546;DHT22;10431;50.228;9.112;2023-04-01T21:26:11;18.70;92.80
20546;DHT22;10431;50.228;9.112;2023-04-01T21:37:55;18.60;92.70
20546;DHT22;10431;50.228;9.112;2023-04-01T21:54:47;18.60;92.70
20546;DHT22;10431;50.228;9.112;2023-04-01T22:00:20;18.50;92.60
20546;DHT22;10431;50.228;9.112;2023-04-01T22:09:09;18.50;92.60
20546;DHT22;10431;50.228;9.112;2023-04-01T22:11:52;18.50;92.60
20546;DHT22;10431;50.228;9.112;2023-04-01T22:14:36;18.50;92.60
20546;DHT22;10431;50.228;9.112;2023-04-01T22:17:23;18.50;92.50
20546;DHT22;10431;50.228;9.112;2023-04-01T22:25:41;18.50;92.50
20546;DHT22;10431;50.228;9.112;2023-04-01T22:31:41;18.50;92.50
20546;DHT22;10431;50.228;9.112;2023-04-01T22:37:22;18.40;92.40
20546;DHT22;10431;50.228;9.112;2023-04-01T22:43:11;18.40;92.40
20546;DHT22;10431;50.228;9.112;2023-04-01T22:48:31;18.40;92.40
20546;DHT22;10431;50.228;9.112;2023-04-01T22:51:24;18.40;92.40
20546;DHT22;10431;50.228;9.112;2023-04-01T22:54:32;18.40;92.70
20546;DHT22;10431;50.228;9.112;2023-04-01T23:00:16;18.40;92.40
20546;DHT22;10431;50.228;9.112;2023-04-01T23:03:01;18.40;92.40
20546;DHT22;10431;50.228;9.112;2023-04-01T23:05:30;18.40;92.40
20546;DHT22;10431;50.228;9.112;2023-04-01T23:11:02;18.40;92.30
20546;DHT22;10431;50.228;9.112;2023-04-01T23:13:34;18.40;92.30
20546;DHT22;10431;50.228;9.112;2023-04-01T23:16:04;18.40;92.60
20546;DHT22;10431;50.228;9.112;2023-04-01T23:18:56;18.40;92.30
20546;DHT22;10431;50.228;9.112;2023-04-01T23:26:37;18.30;92.30
20546;DHT22;10431;50.228;9.112;2023-04-01T23:29:13;18.30;92.30
20546;DHT22;10431;50.228;9.112;2023-04-01T23:31:59;18.30;92.30
20546;DHT22;10431;50.228;9.112;2023-04-01T23:34:30;18.30;92.20
20546;DHT22;10431;50.228;9.112;2023-04-01T23:37:04;18.30;92.20
20546;DHT22;10431;50.228;9.112;2023-04-01T23:39:40;18.30;92.20
20546;DHT22;10431;50.228;9.112;2023-04-01T23:42:20;18.30;92.20
20546;DHT22;10431;50.228;9.112;2023-04-01T23:44:50;18.30;92.20
20546;DHT22;10431;50.228;9.112;2023-04-01T23:47:20;18.30;92.20
20546;DHT22;10431;50.228;9.112;2023-04-01T23:49:59;18.30;92.20
20546;DHT22;10431;50.228;9.112;2023-04-01T23:52:30;18.30;92.20
20546;DHT22;10431;50.228;9.112;2023-04-01T23:55:17;18.30;92.20
